Northern Grand Banks: Past 24 Hour Conditions

 

Cartwright Airport

03:00 PM AST 23 January 2018
Disclaimer

This table is a summary of hourly weather conditions for the past 24 hours.
Please note that these observations might not always be representative of weather conditions over their associated marine area.

Date / Time
(AST)
Wind(knots) Conditions Visibility(km) Pressure(kPa) Air tempC) Relative humidity(%) Dew pointC) Wind Chill
23 January 2018
15:00 SW 6 Mainly Sunny 24 102.3 -14 56 -21 -20
14:00 N 5 Mostly Cloudy 24 102.2 -14 58 -21 -19
13:00 SW 9 Partly Cloudy 24 102.2 -14 63 -20 -23
12:00 SW 9 Partly Cloudy 24 102.2 -16 64 -21 -24
11:00 SW 10 Mainly Sunny 24 102.2 -16 66 -21 -25
10:00 SW 8 Mainly Sunny 24 102.2 -17 66 -22 -25
9:00 SSW 4 Mostly Cloudy 24 102.1 -18 68 -23 -24
8:00 W 4 Mainly Sunny 24 102.0 -18 63 -23 -24
7:00 WNW 9 Mainly Clear 24 102.0 -17 62 -23 -26
6:00 WNW 10 gust 18 Clear 24 101.9 -17 61 -23 -26
5:00 WNW 8 gust 15 Mainly Clear 24 101.9 -17 60 -23 -25
4:00 NW 13 gust 21 Cloudy 24 101.8 -16 62 -22 -27
3:00 WNW 11 gust 19 Mainly Clear 24 101.7 -16 62 -22 -25
2:00 NW 14 Mainly Clear 24 101.6 -16 61 -22 -26
1:00 WNW 14 gust 19 Mainly Clear 24 101.5 -15 62 -21 -26
0:00 W 7 gust 20 Mostly Cloudy 24 101.5 -15 61 -21 -23
22 January 2018
23:00 WNW 10 gust 15 Mostly Cloudy 24 101.4 -15 63 -21 -24
22:00 WNW 9 gust 16 Mostly Cloudy 24 101.4 -15 63 -21 -24
21:00 WNW 10 gust 17 Mostly Cloudy 24 101.3 -16 65 -21 -25
20:00 WNW 14 gust 22 Mostly Cloudy 24 101.3 -15 62 -21 -25
19:00 WNW 16 Mostly Cloudy 24 101.2 -15 61 -20 -25
18:00 WNW 11 gust 18 Mostly Cloudy 24 101.1 -15 60 -21 -24
17:00 WNW 11 gust 18 Partly Cloudy 24 101.1 -15 58 -21 -24
16:00 WNW 12 gust 24 Mainly Sunny 24 101.0 -14 56 -21 -24
15:00 WNW 8 gust 20 Mainly Sunny 24 100.9 -15 58 -21 -22

Zoom-in to make a selection

Map of Atlantic - Newfoundland marine weather areas Southwestern Grand Banks - 44138 Banquereau - 44139 Tail of the Bank - 44140 Nickerson Bank - 44251 Northeast Burgeo Bank - 44255 Blanc-Sablon Airport Cap Whittle Chevery Natashquan Airport Heath Point Miscou Island Grand Étang Ingonish Beach North Mountain St.Paul Island J.A. Douglas McCurdy Sydney Airport Charlottetown Airport East Point North Cape Argentia Bonavista Burgeo Cape Race Corner Brook Daniel's Harbour Englee Ferolle Point La Scie Port aux Basques Rocky Harbour Sagona Island St. Anthony Airport St. John's Int'l Airport St. Lawrence Stephenville Airport Twillingate Winterland Wreckhouse Cartwright Airport Mary's Harbour Grates Cove Pool's Island Marticot Island Long Pond Eskasoni (First Nations) Îles de la Madeleine Airport
Legend:
buoy Buoy
land station Land Station

Atlantic - Newfoundland Area

Another Region

What we are doing

Date modified: